Bay Bulls, Canada
Current Conditions -  °F | °C
As of 3:42 PM on Saturday 25 Oct 2014 (Local Time) from CYYT Reporting Station
Rain Showers Rain Showers  
Wind Chill: 43°   Ceiling: 100
Heat Index: 48°   Visibility: 0.25mi
Dew Point: 48°   Wind: 14mph
Humidity: 100%   Direction: 50°NE
Pressure: 29.36"   Gusts: NA
Location:  47.33°N, 52.83°W
Report Text: CYYT 251742Z 05012KT 1/4SM R11/2600FT/N -SHRA FG VV001 09/09 A2936 RMK FG8 SLP944
Loading
Personal Weather Stations






























Interactive Weather Map
Tropical Storm Tracking
New forecast layout! Learn more

10-Day Weather Forecast

Advertisements
Track Severe Weather on mobile